sensor_id;sensor_type;location;lat;lon;timestamp;P1;durP1;ratioP1;P2;durP2;ratioP2
10503;SDS011;5299;48.704;9.138;2022-11-15T00:00:51;6.45;;;4.00;;
10503;SDS011;5299;48.704;9.138;2022-11-15T00:04:53;6.75;;;3.38;;
10503;SDS011;5299;48.704;9.138;2022-11-15T00:08:57;6.65;;;3.92;;
10503;SDS011;5299;48.704;9.138;2022-11-15T00:12:59;6.10;;;3.35;;
10503;SDS011;5299;48.704;9.138;2022-11-15T00:17:01;6.22;;;3.42;;
10503;SDS011;5299;48.704;9.138;2022-11-15T00:21:04;8.35;;;3.05;;
10503;SDS011;5299;48.704;9.138;2022-11-15T00:25:08;5.70;;;3.30;;
10503;SDS011;5299;48.704;9.138;2022-11-15T00:29:09;8.10;;;3.35;;
10503;SDS011;5299;48.704;9.138;2022-11-15T00:33:11;5.03;;;2.72;;
10503;SDS011;5299;48.704;9.138;2022-11-15T00:37:13;5.97;;;2.47;;
10503;SDS011;5299;48.704;9.138;2022-11-15T00:41:14;4.97;;;2.30;;
10503;SDS011;5299;48.704;9.138;2022-11-15T00:45:16;5.05;;;2.38;;
10503;SDS011;5299;48.704;9.138;2022-11-15T00:49:17;6.60;;;2.60;;
10503;SDS011;5299;48.704;9.138;2022-11-15T00:53:19;7.32;;;2.90;;
10503;SDS011;5299;48.704;9.138;2022-11-15T00:57:22;4.47;;;2.65;;
10503;SDS011;5299;48.704;9.138;2022-11-15T01:01:23;5.53;;;2.70;;
10503;SDS011;5299;48.704;9.138;2022-11-15T01:05:25;5.78;;;3.17;;
10503;SDS011;5299;48.704;9.138;2022-11-15T01:09:27;4.22;;;2.63;;
10503;SDS011;5299;48.704;9.138;2022-11-15T01:13:30;4.45;;;2.35;;
10503;SDS011;5299;48.704;9.138;2022-11-15T01:17:33;4.97;;;2.03;;
10503;SDS011;5299;48.704;9.138;2022-11-15T01:21:34;6.03;;;2.63;;
10503;SDS011;5299;48.704;9.138;2022-11-15T01:25:36;4.57;;;2.58;;
10503;SDS011;5299;48.704;9.138;2022-11-15T01:29:38;7.25;;;2.50;;
10503;SDS011;5299;48.704;9.138;2022-11-15T01:33:41;4.53;;;2.47;;
10503;SDS011;5299;48.704;9.138;2022-11-15T01:37:43;3.00;;;1.90;;
10503;SDS011;5299;48.704;9.138;2022-11-15T01:41:44;4.50;;;2.58;;
10503;SDS011;5299;48.704;9.138;2022-11-15T01:45:47;5.57;;;2.00;;
10503;SDS011;5299;48.704;9.138;2022-11-15T01:50:10;4.50;;;2.10;;
10503;SDS011;5299;48.704;9.138;2022-11-15T01:56:47;3.28;;;1.83;;
10503;SDS011;5299;48.704;9.138;2022-11-15T02:00:52;6.10;;;3.20;;
10503;SDS011;5299;48.704;9.138;2022-11-15T02:04:54;6.80;;;2.88;;
10503;SDS011;5299;48.704;9.138;2022-11-15T02:08:56;4.68;;;2.83;;
10503;SDS011;5299;48.704;9.138;2022-11-15T02:12:57;5.03;;;2.85;;
10503;SDS011;5299;48.704;9.138;2022-11-15T02:17:09;7.25;;;2.75;;
10503;SDS011;5299;48.704;9.138;2022-11-15T02:21:18;10.55;;;3.97;;
10503;SDS011;5299;48.704;9.138;2022-11-15T02:25:57;5.63;;;3.75;;
10503;SDS011;5299;48.704;9.138;2022-11-15T02:30:22;6.95;;;3.15;;
10503;SDS011;5299;48.704;9.138;2022-11-15T02:42:33;6.00;;;2.85;;
10503;SDS011;5299;48.704;9.138;2022-11-15T02:47:02;5.15;;;2.80;;
10503;SDS011;5299;48.704;9.138;2022-11-15T02:51:14;7.78;;;3.63;;
10503;SDS011;5299;48.704;9.138;2022-11-15T02:55:30;6.10;;;2.70;;
10503;SDS011;5299;48.704;9.138;2022-11-15T02:59:41;5.53;;;2.60;;
10503;SDS011;5299;48.704;9.138;2022-11-15T03:03:49;5.00;;;3.45;;
10503;SDS011;5299;48.704;9.138;2022-11-15T03:12:08;5.45;;;2.92;;
10503;SDS011;5299;48.704;9.138;2022-11-15T03:16:20;6.72;;;2.95;;
10503;SDS011;5299;48.704;9.138;2022-11-15T03:20:44;5.03;;;2.50;;
10503;SDS011;5299;48.704;9.138;2022-11-15T03:24:46;5.65;;;3.13;;
10503;SDS011;5299;48.704;9.138;2022-11-15T03:28:50;5.45;;;2.78;;
10503;SDS011;5299;48.704;9.138;2022-11-15T03:32:56;4.18;;;2.58;;
10503;SDS011;5299;48.704;9.138;2022-11-15T03:36:58;4.35;;;2.55;;
10503;SDS011;5299;48.704;9.138;2022-11-15T03:41:01;6.13;;;2.60;;
10503;SDS011;5299;48.704;9.138;2022-11-15T03:45:19;5.25;;;2.60;;
10503;SDS011;5299;48.704;9.138;2022-11-15T03:49:25;3.72;;;2.22;;
10503;SDS011;5299;48.704;9.138;2022-11-15T03:53:29;6.53;;;2.60;;
10503;SDS011;5299;48.704;9.138;2022-11-15T03:57:32;4.45;;;2.58;;
10503;SDS011;5299;48.704;9.138;2022-11-15T04:01:34;4.72;;;2.80;;
10503;SDS011;5299;48.704;9.138;2022-11-15T04:05:35;3.92;;;2.15;;
10503;SDS011;5299;48.704;9.138;2022-11-15T04:09:37;4.75;;;2.67;;
10503;SDS011;5299;48.704;9.138;2022-11-15T04:13:59;4.55;;;2.67;;
10503;SDS011;5299;48.704;9.138;2022-11-15T04:18:00;4.82;;;2.60;;
10503;SDS011;5299;48.704;9.138;2022-11-15T04:22:03;4.07;;;2.60;;
10503;SDS011;5299;48.704;9.138;2022-11-15T04:26:23;5.75;;;2.25;;
10503;SDS011;5299;48.704;9.138;2022-11-15T04:30:25;5.65;;;2.80;;
10503;SDS011;5299;48.704;9.138;2022-11-15T04:34:27;5.75;;;2.70;;
10503;SDS011;5299;48.704;9.138;2022-11-15T04:38:29;4.55;;;2.40;;
10503;SDS011;5299;48.704;9.138;2022-11-15T04:42:30;4.22;;;2.20;;
10503;SDS011;5299;48.704;9.138;2022-11-15T04:46:32;5.45;;;2.85;;
10503;SDS011;5299;48.704;9.138;2022-11-15T04:50:34;4.05;;;2.28;;
10503;SDS011;5299;48.704;9.138;2022-11-15T04:54:35;4.07;;;2.45;;
10503;SDS011;5299;48.704;9.138;2022-11-15T04:58:37;4.95;;;2.92;;
10503;SDS011;5299;48.704;9.138;2022-11-15T05:02:38;3.90;;;2.25;;
10503;SDS011;5299;48.704;9.138;2022-11-15T05:06:59;3.63;;;2.33;;
10503;SDS011;5299;48.704;9.138;2022-11-15T05:11:01;5.00;;;2.72;;
10503;SDS011;5299;48.704;9.138;2022-11-15T05:15:03;5.20;;;3.03;;
10503;SDS011;5299;48.704;9.138;2022-11-15T05:19:05;5.15;;;3.28;;
10503;SDS011;5299;48.704;9.138;2022-11-15T05:23:07;5.40;;;2.78;;
10503;SDS011;5299;48.704;9.138;2022-11-15T05:27:09;5.70;;;2.38;;
10503;SDS011;5299;48.704;9.138;2022-11-15T05:31:14;5.45;;;2.78;;
10503;SDS011;5299;48.704;9.138;2022-11-15T05:35:20;6.35;;;2.50;;
10503;SDS011;5299;48.704;9.138;2022-11-15T05:39:27;5.78;;;3.00;;
10503;SDS011;5299;48.704;9.138;2022-11-15T05:43:29;7.00;;;3.08;;
10503;SDS011;5299;48.704;9.138;2022-11-15T05:47:33;4.97;;;2.63;;
10503;SDS011;5299;48.704;9.138;2022-11-15T05:51:35;5.03;;;2.88;;
10503;SDS011;5299;48.704;9.138;2022-11-15T05:55:38;5.45;;;3.42;;
10503;SDS011;5299;48.704;9.138;2022-11-15T05:59:40;6.20;;;3.22;;
10503;SDS011;5299;48.704;9.138;2022-11-15T06:03:43;6.95;;;4.15;;
10503;SDS011;5299;48.704;9.138;2022-11-15T06:07:44;7.22;;;3.45;;
10503;SDS011;5299;48.704;9.138;2022-11-15T06:11:46;6.00;;;3.75;;
10503;SDS011;5299;48.704;9.138;2022-11-15T06:15:49;6.63;;;3.83;;
10503;SDS011;5299;48.704;9.138;2022-11-15T06:19:50;5.95;;;4.10;;
10503;SDS011;5299;48.704;9.138;2022-11-15T06:23:53;7.22;;;3.78;;
10503;SDS011;5299;48.704;9.138;2022-11-15T06:27:55;10.15;;;3.70;;
10503;SDS011;5299;48.704;9.138;2022-11-15T06:31:58;6.63;;;3.47;;
10503;SDS011;5299;48.704;9.138;2022-11-15T06:36:00;6.82;;;4.40;;
10503;SDS011;5299;48.704;9.138;2022-11-15T06:40:17;7.80;;;4.15;;
10503;SDS011;5299;48.704;9.138;2022-11-15T06:44:19;6.15;;;3.95;;
10503;SDS011;5299;48.704;9.138;2022-11-15T06:48:20;6.38;;;4.10;;
10503;SDS011;5299;48.704;9.138;2022-11-15T06:52:22;7.00;;;4.25;;
10503;SDS011;5299;48.704;9.138;2022-11-15T06:56:23;7.63;;;4.72;;
10503;SDS011;5299;48.704;9.138;2022-11-15T07:00:25;5.72;;;3.78;;
10503;SDS011;5299;48.704;9.138;2022-11-15T07:04:26;5.13;;;3.53;;
10503;SDS011;5299;48.704;9.138;2022-11-15T07:08:28;7.72;;;4.18;;
10503;SDS011;5299;48.704;9.138;2022-11-15T07:12:30;6.22;;;4.38;;
10503;SDS011;5299;48.704;9.138;2022-11-15T07:16:32;6.53;;;3.75;;
10503;SDS011;5299;48.704;9.138;2022-11-15T07:20:33;6.65;;;3.83;;
10503;SDS011;5299;48.704;9.138;2022-11-15T07:24:35;9.57;;;5.38;;
10503;SDS011;5299;48.704;9.138;2022-11-15T07:28:38;8.77;;;5.18;;
10503;SDS011;5299;48.704;9.138;2022-11-15T07:32:39;7.95;;;4.70;;
10503;SDS011;5299;48.704;9.138;2022-11-15T07:36:41;8.65;;;5.47;;
10503;SDS011;5299;48.704;9.138;2022-11-15T07:40:43;12.40;;;5.05;;
10503;SDS011;5299;48.704;9.138;2022-11-15T07:44:45;8.60;;;5.47;;
10503;SDS011;5299;48.704;9.138;2022-11-15T07:48:46;7.80;;;4.78;;
10503;SDS011;5299;48.704;9.138;2022-11-15T07:52:52;9.18;;;5.55;;
10503;SDS011;5299;48.704;9.138;2022-11-15T07:56:55;11.40;;;4.73;;
10503;SDS011;5299;48.704;9.138;2022-11-15T08:01:02;10.05;;;5.15;;
10503;SDS011;5299;48.704;9.138;2022-11-15T08:05:07;9.48;;;5.05;;
10503;SDS011;5299;48.704;9.138;2022-11-15T08:09:08;11.10;;;5.53;;
10503;SDS011;5299;48.704;9.138;2022-11-15T08:13:10;8.90;;;4.50;;
10503;SDS011;5299;48.704;9.138;2022-11-15T08:17:13;9.02;;;4.20;;
10503;SDS011;5299;48.704;9.138;2022-11-15T08:21:17;7.97;;;4.10;;
10503;SDS011;5299;48.704;9.138;2022-11-15T08:25:20;9.55;;;3.45;;
10503;SDS011;5299;48.704;9.138;2022-11-15T08:29:21;5.95;;;3.35;;
10503;SDS011;5299;48.704;9.138;2022-11-15T08:33:23;9.30;;;3.75;;
10503;SDS011;5299;48.704;9.138;2022-11-15T08:37:25;8.30;;;4.97;;
10503;SDS011;5299;48.704;9.138;2022-11-15T08:41:31;6.60;;;2.95;;
10503;SDS011;5299;48.704;9.138;2022-11-15T08:49:36;4.30;;;2.45;;
10503;SDS011;5299;48.704;9.138;2022-11-15T08:53:38;6.75;;;2.33;;
10503;SDS011;5299;48.704;9.138;2022-11-15T08:57:40;4.63;;;2.40;;
10503;SDS011;5299;48.704;9.138;2022-11-15T09:01:41;4.50;;;2.30;;
10503;SDS011;5299;48.704;9.138;2022-11-15T09:05:43;5.13;;;2.15;;
10503;SDS011;5299;48.704;9.138;2022-11-15T09:09:44;3.53;;;2.13;;
10503;SDS011;5299;48.704;9.138;2022-11-15T09:13:46;2.95;;;1.75;;
10503;SDS011;5299;48.704;9.138;2022-11-15T09:17:48;6.13;;;2.17;;
10503;SDS011;5299;48.704;9.138;2022-11-15T09:21:49;3.38;;;1.85;;
10503;SDS011;5299;48.704;9.138;2022-11-15T09:25:51;2.78;;;1.98;;
10503;SDS011;5299;48.704;9.138;2022-11-15T09:29:53;4.22;;;2.10;;
10503;SDS011;5299;48.704;9.138;2022-11-15T09:33:55;3.42;;;1.80;;
10503;SDS011;5299;48.704;9.138;2022-11-15T09:37:57;2.10;;;1.52;;
10503;SDS011;5299;48.704;9.138;2022-11-15T09:50:31;5.75;;;2.25;;
10503;SDS011;5299;48.704;9.138;2022-11-15T09:54:36;2.40;;;1.30;;
10503;SDS011;5299;48.704;9.138;2022-11-15T10:11:29;4.10;;;1.67;;
10503;SDS011;5299;48.704;9.138;2022-11-15T10:15:38;3.72;;;1.60;;
10503;SDS011;5299;48.704;9.138;2022-11-15T10:24:25;2.20;;;1.60;;
10503;SDS011;5299;48.704;9.138;2022-11-15T10:28:31;3.45;;;1.70;;
10503;SDS011;5299;48.704;9.138;2022-11-15T10:32:33;2.00;;;1.65;;
10503;SDS011;5299;48.704;9.138;2022-11-15T10:36:35;4.47;;;2.03;;
10503;SDS011;5299;48.704;9.138;2022-11-15T10:40:37;5.07;;;1.95;;
10503;SDS011;5299;48.704;9.138;2022-11-15T10:44:44;3.22;;;1.40;;
10503;SDS011;5299;48.704;9.138;2022-11-15T10:48:46;4.15;;;2.63;;
10503;SDS011;5299;48.704;9.138;2022-11-15T10:52:47;3.22;;;1.40;;
10503;SDS011;5299;48.704;9.138;2022-11-15T10:56:50;2.75;;;1.40;;
10503;SDS011;5299;48.704;9.138;2022-11-15T11:00:53;3.83;;;2.00;;
10503;SDS011;5299;48.704;9.138;2022-11-15T11:04:55;2.60;;;1.27;;
10503;SDS011;5299;48.704;9.138;2022-11-15T11:17:56;7.53;;;1.40;;
10503;SDS011;5299;48.704;9.138;2022-11-15T11:22:22;2.90;;;1.50;;
10503;SDS011;5299;48.704;9.138;2022-11-15T11:30:45;4.00;;;1.77;;
10503;SDS011;5299;48.704;9.138;2022-11-15T11:44:00;3.47;;;1.95;;
10503;SDS011;5299;48.704;9.138;2022-11-15T11:48:23;4.78;;;1.88;;
10503;SDS011;5299;48.704;9.138;2022-11-15T11:56:41;7.88;;;2.13;;
10503;SDS011;5299;48.704;9.138;2022-11-15T12:00:46;3.42;;;1.67;;
10503;SDS011;5299;48.704;9.138;2022-11-15T12:05:09;4.75;;;1.50;;
10503;SDS011;5299;48.704;9.138;2022-11-15T12:13:28;4.57;;;1.58;;
10503;SDS011;5299;48.704;9.138;2022-11-15T12:17:31;2.25;;;1.45;;
10503;SDS011;5299;48.704;9.138;2022-11-15T12:21:50;3.13;;;1.55;;
10503;SDS011;5299;48.704;9.138;2022-11-15T12:26:18;3.33;;;1.50;;
10503;SDS011;5299;48.704;9.138;2022-11-15T12:30:20;3.20;;;1.45;;
10503;SDS011;5299;48.704;9.138;2022-11-15T12:51:10;3.50;;;1.63;;
10503;SDS011;5299;48.704;9.138;2022-11-15T12:55:28;3.92;;;1.63;;
10503;SDS011;5299;48.704;9.138;2022-11-15T13:04:13;5.05;;;1.77;;
10503;SDS011;5299;48.704;9.138;2022-11-15T13:08:35;4.03;;;1.70;;
10503;SDS011;5299;48.704;9.138;2022-11-15T13:16:45;2.67;;;1.58;;
10503;SDS011;5299;48.704;9.138;2022-11-15T13:20:48;3.90;;;1.17;;
10503;SDS011;5299;48.704;9.138;2022-11-15T13:24:49;2.33;;;1.23;;
10503;SDS011;5299;48.704;9.138;2022-11-15T13:28:51;2.15;;;0.90;;
10503;SDS011;5299;48.704;9.138;2022-11-15T13:32:53;3.25;;;1.70;;
10503;SDS011;5299;48.704;9.138;2022-11-15T13:36:55;2.58;;;1.25;;
10503;SDS011;5299;48.704;9.138;2022-11-15T13:40:58;2.25;;;0.98;;
10503;SDS011;5299;48.704;9.138;2022-11-15T13:45:02;5.53;;;1.80;;
10503;SDS011;5299;48.704;9.138;2022-11-15T13:49:08;7.93;;;2.83;;
10503;SDS011;5299;48.704;9.138;2022-11-15T13:53:12;8.35;;;3.83;;
10503;SDS011;5299;48.704;9.138;2022-11-15T13:57:15;10.52;;;4.55;;
10503;SDS011;5299;48.704;9.138;2022-11-15T14:01:20;8.05;;;5.03;;
10503;SDS011;5299;48.704;9.138;2022-11-15T14:05:23;12.02;;;5.40;;
10503;SDS011;5299;48.704;9.138;2022-11-15T14:09:38;11.10;;;5.47;;
10503;SDS011;5299;48.704;9.138;2022-11-15T14:13:41;10.90;;;4.57;;
10503;SDS011;5299;48.704;9.138;2022-11-15T14:17:43;9.35;;;4.68;;
10503;SDS011;5299;48.704;9.138;2022-11-15T14:26:25;11.57;;;4.68;;
10503;SDS011;5299;48.704;9.138;2022-11-15T14:30:28;8.18;;;4.95;;
10503;SDS011;5299;48.704;9.138;2022-11-15T14:34:31;19.60;;;6.35;;
10503;SDS011;5299;48.704;9.138;2022-11-15T14:38:33;12.13;;;5.25;;
10503;SDS011;5299;48.704;9.138;2022-11-15T14:42:36;11.98;;;5.45;;
10503;SDS011;5299;48.704;9.138;2022-11-15T14:46:38;10.88;;;5.63;;
10503;SDS011;5299;48.704;9.138;2022-11-15T14:50:39;9.38;;;5.43;;
10503;SDS011;5299;48.704;9.138;2022-11-15T14:54:41;10.40;;;6.07;;
10503;SDS011;5299;48.704;9.138;2022-11-15T14:58:43;8.73;;;5.43;;
10503;SDS011;5299;48.704;9.138;2022-11-15T15:02:45;11.00;;;5.70;;
10503;SDS011;5299;48.704;9.138;2022-11-15T15:06:47;9.65;;;5.53;;
10503;SDS011;5299;48.704;9.138;2022-11-15T15:10:49;12.32;;;5.80;;
10503;SDS011;5299;48.704;9.138;2022-11-15T15:14:50;14.23;;;6.22;;
10503;SDS011;5299;48.704;9.138;2022-11-15T15:18:52;10.90;;;4.90;;
10503;SDS011;5299;48.704;9.138;2022-11-15T15:22:54;11.32;;;6.00;;
10503;SDS011;5299;48.704;9.138;2022-11-15T15:26:56;9.70;;;6.03;;
10503;SDS011;5299;48.704;9.138;2022-11-15T15:30:57;11.35;;;6.05;;
10503;SDS011;5299;48.704;9.138;2022-11-15T15:34:59;8.93;;;5.50;;
10503;SDS011;5299;48.704;9.138;2022-11-15T15:39:01;12.93;;;5.63;;
10503;SDS011;5299;48.704;9.138;2022-11-15T15:43:02;10.93;;;5.25;;
10503;SDS011;5299;48.704;9.138;2022-11-15T15:47:09;9.27;;;6.10;;
10503;SDS011;5299;48.704;9.138;2022-11-15T15:51:12;10.20;;;6.18;;
10503;SDS011;5299;48.704;9.138;2022-11-15T15:55:20;11.50;;;5.97;;
10503;SDS011;5299;48.704;9.138;2022-11-15T15:59:22;10.25;;;6.97;;
10503;SDS011;5299;48.704;9.138;2022-11-15T16:03:23;14.60;;;8.40;;
10503;SDS011;5299;48.704;9.138;2022-11-15T16:07:25;15.65;;;8.15;;
10503;SDS011;5299;48.704;9.138;2022-11-15T16:11:26;16.23;;;9.23;;
10503;SDS011;5299;48.704;9.138;2022-11-15T16:15:29;16.88;;;9.38;;
10503;SDS011;5299;48.704;9.138;2022-11-15T16:19:31;12.10;;;7.90;;
10503;SDS011;5299;48.704;9.138;2022-11-15T16:23:33;13.10;;;6.97;;
10503;SDS011;5299;48.704;9.138;2022-11-15T16:27:34;13.05;;;7.43;;
10503;SDS011;5299;48.704;9.138;2022-11-15T16:31:38;9.70;;;6.75;;
10503;SDS011;5299;48.704;9.138;2022-11-15T16:35:40;10.82;;;6.93;;
10503;SDS011;5299;48.704;9.138;2022-11-15T16:39:41;12.60;;;7.70;;
10503;SDS011;5299;48.704;9.138;2022-11-15T16:43:45;14.48;;;7.97;;
10503;SDS011;5299;48.704;9.138;2022-11-15T16:47:48;12.73;;;8.07;;
10503;SDS011;5299;48.704;9.138;2022-11-15T16:51:50;14.18;;;7.75;;
10503;SDS011;5299;48.704;9.138;2022-11-15T16:55:52;12.10;;;7.95;;
10503;SDS011;5299;48.704;9.138;2022-11-15T16:59:54;15.32;;;7.85;;
10503;SDS011;5299;48.704;9.138;2022-11-15T17:03:56;12.68;;;7.88;;
10503;SDS011;5299;48.704;9.138;2022-11-15T17:07:57;12.95;;;7.82;;
10503;SDS011;5299;48.704;9.138;2022-11-15T17:11:59;12.82;;;7.18;;
10503;SDS011;5299;48.704;9.138;2022-11-15T17:16:08;15.32;;;7.57;;
10503;SDS011;5299;48.704;9.138;2022-11-15T17:20:15;12.27;;;8.90;;
10503;SDS011;5299;48.704;9.138;2022-11-15T17:24:18;19.10;;;11.43;;
10503;SDS011;5299;48.704;9.138;2022-11-15T17:28:21;21.17;;;12.40;;
10503;SDS011;5299;48.704;9.138;2022-11-15T17:32:23;24.05;;;14.38;;
10503;SDS011;5299;48.704;9.138;2022-11-15T17:36:24;24.65;;;14.13;;
10503;SDS011;5299;48.704;9.138;2022-11-15T17:40:26;22.52;;;12.80;;
10503;SDS011;5299;48.704;9.138;2022-11-15T17:44:28;22.10;;;14.02;;
10503;SDS011;5299;48.704;9.138;2022-11-15T17:48:29;19.75;;;12.13;;
10503;SDS011;5299;48.704;9.138;2022-11-15T17:52:32;22.48;;;11.93;;
10503;SDS011;5299;48.704;9.138;2022-11-15T17:56:33;13.15;;;8.90;;
10503;SDS011;5299;48.704;9.138;2022-11-15T18:00:39;15.23;;;9.35;;
10503;SDS011;5299;48.704;9.138;2022-11-15T18:04:41;15.77;;;9.38;;
10503;SDS011;5299;48.704;9.138;2022-11-15T18:08:43;15.43;;;10.57;;
10503;SDS011;5299;48.704;9.138;2022-11-15T18:12:45;15.23;;;9.38;;
10503;SDS011;5299;48.704;9.138;2022-11-15T18:16:47;16.33;;;10.80;;
10503;SDS011;5299;48.704;9.138;2022-11-15T18:20:48;18.95;;;11.65;;
10503;SDS011;5299;48.704;9.138;2022-11-15T18:24:50;28.00;;;14.35;;
10503;SDS011;5299;48.704;9.138;2022-11-15T18:28:52;26.58;;;14.13;;
10503;SDS011;5299;48.704;9.138;2022-11-15T18:32:58;21.73;;;13.77;;
10503;SDS011;5299;48.704;9.138;2022-11-15T18:37:00;15.35;;;8.98;;
10503;SDS011;5299;48.704;9.138;2022-11-15T18:45:09;8.20;;;4.72;;
10503;SDS011;5299;48.704;9.138;2022-11-15T18:49:11;9.35;;;3.92;;
10503;SDS011;5299;48.704;9.138;2022-11-15T18:53:14;6.70;;;4.55;;
10503;SDS011;5299;48.704;9.138;2022-11-15T18:57:16;9.65;;;4.80;;
10503;SDS011;5299;48.704;9.138;2022-11-15T19:01:18;9.13;;;4.55;;
10503;SDS011;5299;48.704;9.138;2022-11-15T19:05:40;7.78;;;4.57;;
10503;SDS011;5299;48.704;9.138;2022-11-15T19:09:42;8.98;;;5.38;;
10503;SDS011;5299;48.704;9.138;2022-11-15T19:13:43;8.68;;;5.30;;
10503;SDS011;5299;48.704;9.138;2022-11-15T19:17:46;9.52;;;4.85;;
10503;SDS011;5299;48.704;9.138;2022-11-15T19:21:48;10.45;;;5.13;;
10503;SDS011;5299;48.704;9.138;2022-11-15T19:25:56;9.07;;;5.63;;
10503;SDS011;5299;48.704;9.138;2022-11-15T19:30:01;9.20;;;4.68;;
10503;SDS011;5299;48.704;9.138;2022-11-15T19:34:03;8.38;;;4.38;;
10503;SDS011;5299;48.704;9.138;2022-11-15T19:38:05;9.60;;;4.57;;
10503;SDS011;5299;48.704;9.138;2022-11-15T19:42:07;6.78;;;3.95;;
10503;SDS011;5299;48.704;9.138;2022-11-15T19:46:10;7.97;;;4.13;;
10503;SDS011;5299;48.704;9.138;2022-11-15T19:50:12;7.35;;;4.22;;
10503;SDS011;5299;48.704;9.138;2022-11-15T19:54:14;9.48;;;5.30;;
10503;SDS011;5299;48.704;9.138;2022-11-15T19:58:17;7.78;;;4.57;;
10503;SDS011;5299;48.704;9.138;2022-11-15T20:02:19;6.68;;;3.90;;
10503;SDS011;5299;48.704;9.138;2022-11-15T20:06:39;4.82;;;3.35;;
10503;SDS011;5299;48.704;9.138;2022-11-15T20:10:42;7.32;;;3.88;;
10503;SDS011;5299;48.704;9.138;2022-11-15T20:14:46;6.65;;;3.78;;
10503;SDS011;5299;48.704;9.138;2022-11-15T20:18:48;7.70;;;4.40;;
10503;SDS011;5299;48.704;9.138;2022-11-15T20:22:50;7.93;;;4.35;;
10503;SDS011;5299;48.704;9.138;2022-11-15T20:26:53;11.68;;;6.88;;
10503;SDS011;5299;48.704;9.138;2022-11-15T20:30:57;12.15;;;6.70;;
10503;SDS011;5299;48.704;9.138;2022-11-15T20:35:00;10.88;;;6.72;;
10503;SDS011;5299;48.704;9.138;2022-11-15T20:39:01;10.20;;;6.38;;
10503;SDS011;5299;48.704;9.138;2022-11-15T20:43:03;9.38;;;5.85;;
10503;SDS011;5299;48.704;9.138;2022-11-15T20:47:05;7.80;;;5.82;;
10503;SDS011;5299;48.704;9.138;2022-11-15T20:51:11;8.82;;;5.80;;
10503;SDS011;5299;48.704;9.138;2022-11-15T20:55:15;8.27;;;4.78;;
10503;SDS011;5299;48.704;9.138;2022-11-15T20:59:17;7.20;;;4.75;;
10503;SDS011;5299;48.704;9.138;2022-11-15T21:03:18;8.43;;;4.90;;
10503;SDS011;5299;48.704;9.138;2022-11-15T21:07:20;10.05;;;4.90;;
10503;SDS011;5299;48.704;9.138;2022-11-15T21:11:21;8.48;;;5.47;;
10503;SDS011;5299;48.704;9.138;2022-11-15T21:15:41;6.63;;;4.70;;
10503;SDS011;5299;48.704;9.138;2022-11-15T21:19:43;7.50;;;5.15;;
10503;SDS011;5299;48.704;9.138;2022-11-15T21:23:45;6.95;;;3.95;;
10503;SDS011;5299;48.704;9.138;2022-11-15T21:27:46;7.45;;;4.65;;
10503;SDS011;5299;48.704;9.138;2022-11-15T21:31:49;7.07;;;4.32;;
10503;SDS011;5299;48.704;9.138;2022-11-15T21:35:51;11.10;;;4.03;;
10503;SDS011;5299;48.704;9.138;2022-11-15T21:39:56;7.60;;;4.75;;
10503;SDS011;5299;48.704;9.138;2022-11-15T21:44:00;11.73;;;5.07;;
10503;SDS011;5299;48.704;9.138;2022-11-15T21:48:03;8.65;;;4.97;;
10503;SDS011;5299;48.704;9.138;2022-11-15T21:52:06;6.25;;;4.40;;
10503;SDS011;5299;48.704;9.138;2022-11-15T21:56:08;9.18;;;5.15;;
10503;SDS011;5299;48.704;9.138;2022-11-15T22:00:10;9.07;;;4.97;;
10503;SDS011;5299;48.704;9.138;2022-11-15T22:04:30;7.70;;;4.47;;
10503;SDS011;5299;48.704;9.138;2022-11-15T22:08:32;5.18;;;3.60;;
10503;SDS011;5299;48.704;9.138;2022-11-15T22:12:35;7.35;;;3.53;;
10503;SDS011;5299;48.704;9.138;2022-11-15T22:16:36;5.20;;;3.45;;
10503;SDS011;5299;48.704;9.138;2022-11-15T22:20:38;7.20;;;4.05;;
10503;SDS011;5299;48.704;9.138;2022-11-15T22:24:45;6.47;;;3.63;;
10503;SDS011;5299;48.704;9.138;2022-11-15T22:28:46;7.47;;;3.90;;
10503;SDS011;5299;48.704;9.138;2022-11-15T22:32:48;6.65;;;4.55;;
10503;SDS011;5299;48.704;9.138;2022-11-15T22:36:50;7.55;;;4.25;;
10503;SDS011;5299;48.704;9.138;2022-11-15T22:41:12;8.70;;;3.88;;
10503;SDS011;5299;48.704;9.138;2022-11-15T22:45:13;5.63;;;3.22;;
10503;SDS011;5299;48.704;9.138;2022-11-15T22:49:15;6.65;;;4.22;;
10503;SDS011;5299;48.704;9.138;2022-11-15T22:53:16;6.38;;;3.90;;
10503;SDS011;5299;48.704;9.138;2022-11-15T22:57:19;4.63;;;3.50;;
10503;SDS011;5299;48.704;9.138;2022-11-15T23:01:20;8.57;;;4.07;;
10503;SDS011;5299;48.704;9.138;2022-11-15T23:05:22;7.50;;;3.90;;
10503;SDS011;5299;48.704;9.138;2022-11-15T23:09:24;6.53;;;3.67;;
10503;SDS011;5299;48.704;9.138;2022-11-15T23:13:26;8.77;;;4.13;;
10503;SDS011;5299;48.704;9.138;2022-11-15T23:17:29;5.90;;;3.90;;
10503;SDS011;5299;48.704;9.138;2022-11-15T23:21:33;6.90;;;3.72;;
10503;SDS011;5299;48.704;9.138;2022-11-15T23:25:56;6.68;;;4.53;;
10503;SDS011;5299;48.704;9.138;2022-11-15T23:29:59;6.10;;;3.03;;
10503;SDS011;5299;48.704;9.138;2022-11-15T23:34:19;5.53;;;3.60;;
10503;SDS011;5299;48.704;9.138;2022-11-15T23:38:22;5.97;;;3.53;;
10503;SDS011;5299;48.704;9.138;2022-11-15T23:42:24;9.00;;;4.32;;
10503;SDS011;5299;48.704;9.138;2022-11-15T23:46:25;6.63;;;4.25;;
10503;SDS011;5299;48.704;9.138;2022-11-15T23:50:27;7.50;;;4.05;;
10503;SDS011;5299;48.704;9.138;2022-11-15T23:54:29;5.78;;;3.70;;
10503;SDS011;5299;48.704;9.138;2022-11-15T23:58:31;8.20;;;4.13;;
